Time;durP1;ratioP1;P1;durP2;ratioP2;P2;SDS_P1;SDS_P2;PMS_P1;PMS_P2;Temp;Humidity;BMP_temperature;BMP_pressure;BME280_temperature;BME280_humidity;BME280_pressure;Samples;Min_cycle;Max_cycle;Signal;HPM_P1;HPM_P2
2022/01/11 00:02:18;;;;;;;78.60;14.27;;;;;;;-1.21;100.00;103001.47;5055082;28;20139;-54
2022/01/11 00:04:46;;;;;;;46.03;13.70;;;;;;;-1.15;100.00;103005.03;5054510;28;20052;-55
2022/01/11 00:07:16;;;;;;;42.20;13.52;;;;;;;-1.15;100.00;103008.47;5054845;28;20051;-54
2022/01/11 00:09:45;;;;;;;39.58;13.48;;;;;;;-1.14;100.00;103011.94;5054731;28;20106;-56
2022/01/11 00:12:15;;;;;;;40.05;12.63;;;;;;;-1.10;100.00;103003.41;5054429;28;20053;-56
2022/01/11 00:14:43;;;;;;;52.60;13.90;;;;;;;-1.07;100.00;103006.03;5054562;28;20041;-57
2022/01/11 00:17:11;;;;;;;44.83;11.77;;;;;;;-1.07;100.00;103014.63;5054640;28;20055;-56
2022/01/11 00:19:39;;;;;;;50.58;12.60;;;;;;;-1.04;100.00;103019.00;5054489;28;20049;-56
2022/01/11 00:22:16;;;;;;;41.38;12.32;;;;;;;-1.00;100.00;103013.03;5054447;28;20049;-55
2022/01/11 00:24:43;;;;;;;32.85;13.40;;;;;;;-1.05;100.00;103020.72;5052976;28;20052;-55
2022/01/11 00:27:11;;;;;;;34.92;12.35;;;;;;;-1.05;100.00;103019.84;5054063;28;20072;-56
2022/01/11 00:29:44;;;;;;;37.92;12.85;;;;;;;-1.07;100.00;103014.63;5054353;28;20045;-54
2022/01/11 00:32:16;;;;;;;;;;;;;;;-1.10;100.00;103016.31;5054942;28;20053;-56
2022/01/11 00:34:48;;;;;;;31.65;13.07;;;;;;;-1.15;100.00;103020.53;5054244;28;19928;-56
2022/01/11 00:37:16;;;;;;;41.97;12.88;;;;;;;-1.09;100.00;103023.19;5053598;28;20049;-56
2022/01/11 00:39:45;;;;;;;40.00;13.77;;;;;;;-1.17;100.00;103022.19;5053717;28;20076;-54
2022/01/11 00:42:15;;;;;;;40.35;13.35;;;;;;;-1.18;100.00;103017.88;5053931;28;20083;-56
2022/01/11 00:44:44;;;;;;;42.20;13.02;;;;;;;-1.22;100.00;103004.03;5053753;28;20398;-55
2022/01/11 00:47:12;;;;;;;33.90;13.90;;;;;;;-1.24;100.00;103006.59;5053808;28;20041;-57
2022/01/11 00:49:41;;;;;;;39.17;15.00;;;;;;;-1.15;100.00;103016.22;5053960;28;20045;-55
2022/01/11 00:52:09;;;;;;;44.70;13.93;;;;;;;-1.19;100.00;103014.41;5053936;28;20103;-56
2022/01/11 00:54:38;;;;;;;69.90;16.45;;;;;;;-1.30;100.00;103023.69;5053715;28;20045;-56
2022/01/11 00:57:06;;;;;;;39.22;14.13;;;;;;;-1.33;100.00;103027.06;5053904;28;20123;-55
2022/01/11 00:59:34;;;;;;;52.80;12.75;;;;;;;-1.33;100.00;103024.50;5053423;28;20155;-53
2022/01/11 01:02:03;;;;;;;39.13;12.75;;;;;;;-1.34;100.00;103020.16;5053576;28;20112;-56
2022/01/11 01:04:32;;;;;;;32.58;11.77;;;;;;;-1.28;100.00;103027.16;5053477;28;20152;-55
2022/01/11 01:07:00;;;;;;;42.05;13.85;;;;;;;-1.27;100.00;103028.91;5053609;28;20066;-56
2022/01/11 01:09:31;;;;;;;28.58;11.10;;;;;;;-1.36;100.00;103040.78;5053548;28;20099;-51
2022/01/11 01:11:59;;;;;;;33.13;12.63;;;;;;;-1.29;100.00;103053.84;5053481;28;20135;-55
2022/01/11 01:14:27;;;;;;;33.17;12.48;;;;;;;-1.30;100.00;103054.66;5053332;28;20045;-56
2022/01/11 01:16:55;;;;;;;45.03;10.95;;;;;;;-1.23;100.00;103052.25;5053196;28;20047;-52
2022/01/11 01:19:26;;;;;;;35.08;11.57;;;;;;;-1.23;100.00;103047.06;5053361;28;20568;-55
2022/01/11 01:21:55;;;;;;;29.93;11.00;;;;;;;-1.33;100.00;103052.88;5053261;28;20049;-56
2022/01/11 01:24:23;;;;;;;34.22;12.13;;;;;;;-1.25;100.00;103048.75;5053236;28;20466;-57
2022/01/11 01:26:51;;;;;;;26.67;10.55;;;;;;;-1.34;100.00;103058.88;5063133;28;20055;-56
2022/01/11 01:29:19;;;;;;;34.40;10.63;;;;;;;-1.30;100.00;103063.28;5071432;28;20458;-56
2022/01/11 01:31:48;;;;;;;27.35;11.55;;;;;;;-1.30;100.00;103067.56;5070965;28;20047;-57
2022/01/11 01:34:16;;;;;;;41.42;13.02;;;;;;;-1.42;100.00;103063.03;5070778;28;20546;-56
2022/01/11 01:36:45;;;;;;;37.60;11.10;;;;;;;-1.39;100.00;103063.97;5070837;28;20051;-56
2022/01/11 01:39:13;;;;;;;33.80;12.13;;;;;;;-1.34;100.00;103061.47;5070406;28;20044;-57
2022/01/11 01:41:43;;;;;;;33.90;13.00;;;;;;;-1.34;100.00;103063.19;5071112;28;20143;-57
2022/01/11 01:44:12;;;;;;;27.55;12.63;;;;;;;-1.20;100.00;103065.22;5069979;28;20504;-55
2022/01/11 01:46:41;;;;;;;49.45;13.57;;;;;;;-1.13;100.00;103060.16;5069874;28;20105;-53
2022/01/11 01:49:16;;;;;;;36.78;13.25;;;;;;;-1.12;100.00;103067.91;5069544;28;20048;-55
2022/01/11 01:51:45;;;;;;;43.40;13.07;;;;;;;-1.21;100.00;103068.63;5071137;28;20079;-56
2022/01/11 01:54:15;;;;;;;30.38;12.90;;;;;;;-1.17;100.00;103068.69;5069669;28;20052;-56
2022/01/11 01:56:44;;;;;;;34.80;13.60;;;;;;;-1.13;100.00;103080.81;5070937;28;20068;-54
2022/01/11 01:59:12;;;;;;;34.15;15.63;;;;;;;-1.16;100.00;103078.16;5069094;28;20063;-55
2022/01/11 02:01:45;;;;;;;35.95;15.13;;;;;;;-1.15;100.00;103069.59;5070299;28;20507;-56
2022/01/11 02:04:16;;;;;;;35.97;16.85;;;;;;;-1.09;100.00;103072.28;5068963;28;21371;-55
2022/01/11 02:06:46;;;;;;;52.35;16.45;;;;;;;-1.09;100.00;103072.28;5070796;28;20044;-56
2022/01/11 02:09:16;;;;;;;40.03;16.13;;;;;;;-1.04;100.00;103070.66;5069671;28;20482;-54
2022/01/11 02:11:44;;;;;;;37.75;16.55;;;;;;;-1.04;100.00;103073.25;5068873;28;20075;-56
2022/01/11 02:14:12;;;;;;;40.30;15.10;;;;;;;-1.00;100.00;103071.59;5070035;28;20473;-56
2022/01/11 02:16:41;;;;;;;45.17;16.90;;;;;;;-0.99;100.00;103063.00;5069859;28;20140;-56
2022/01/11 02:19:09;;;;;;;40.85;15.30;;;;;;;-1.03;100.00;103064.66;5069995;28;20086;-56
2022/01/11 02:21:39;;;;;;;37.47;16.60;;;;;;;-0.99;100.00;103065.59;5069371;28;20623;-56
2022/01/11 02:24:07;;;;;;;37.92;16.45;;;;;;;-0.93;100.00;103073.44;5070573;28;20044;-54
2022/01/11 02:26:35;;;;;;;36.75;15.80;;;;;;;-0.93;100.00;103070.84;5069849;28;20467;-55
2022/01/11 02:29:04;;;;;;;45.10;15.30;;;;;;;-0.96;100.00;103073.41;5069960;28;20040;-55
2022/01/11 02:31:37;;;;;;;38.60;15.52;;;;;;;-0.97;100.00;103080.25;5069352;28;20040;-56
2022/01/11 02:34:05;;;;;;;46.92;15.82;;;;;;;-0.90;100.00;103076.06;5070327;28;20060;-56
2022/01/11 02:36:35;;;;;;;41.25;16.23;;;;;;;-0.93;100.00;103074.31;5069342;28;20123;-55
2022/01/11 02:39:05;;;;;;;34.28;16.58;;;;;;;-0.91;100.00;103076.94;5070283;28;20040;-56
2022/01/11 02:41:33;;;;;;;39.25;17.02;;;;;;;-0.96;100.00;103074.25;5069435;28;20044;-55
2022/01/11 02:44:02;;;;;;;42.33;18.00;;;;;;;-0.99;100.00;103069.03;5062985;28;20110;-54
2022/01/11 02:46:30;;;;;;;44.10;16.83;;;;;;;-0.88;100.00;103077.00;5070180;28;20120;-56
2022/01/11 02:48:59;;;;;;;41.38;17.90;;;;;;;-0.91;100.00;103072.63;5069670;28;20045;-54
2022/01/11 02:51:27;;;;;;;39.67;16.48;;;;;;;-0.84;100.00;103076.19;5068589;28;20052;-56
2022/01/11 02:53:57;;;;;;;41.70;16.58;;;;;;;-0.86;100.00;103075.28;5069320;28;20056;-56
2022/01/11 02:56:27;;;;;;;43.00;16.50;;;;;;;-0.90;100.00;103069.22;5069448;28;20040;-56
2022/01/11 02:58:55;;;;;;;40.30;16.17;;;;;;;-0.82;100.00;103066.75;5069242;28;20044;-54
2022/01/11 03:01:24;;;;;;;50.40;16.17;;;;;;;-0.72;100.00;103066.09;5070521;28;20421;-55
2022/01/11 03:03:52;;;;;;;31.30;14.48;;;;;;;-0.76;100.00;103073.75;5069161;28;20499;-57
2022/01/11 03:06:20;;;;;;;52.65;17.30;;;;;;;-0.84;100.00;103077.94;5063557;28;20461;-55
2022/01/11 03:08:49;;;;;;;32.22;14.05;;;;;;;-0.91;100.00;103076.94;5069343;28;20366;-55
2022/01/11 03:11:20;;;;;;;37.53;16.30;;;;;;;-0.88;100.00;103075.25;5070291;28;20036;-56
2022/01/11 03:13:50;;;;;;;33.17;15.57;;;;;;;-0.98;100.00;103088.88;5070217;28;20075;-56
2022/01/11 03:16:18;;;;;;;30.65;14.73;;;;;;;-0.90;100.00;103097.63;5067102;28;20041;-55
2022/01/11 03:18:47;;;;;;;35.53;15.25;;;;;;;-0.90;100.00;103094.16;5069531;28;20045;-56
2022/01/11 03:21:15;;;;;;;36.92;15.25;;;;;;;-0.89;100.00;103090.75;5068753;28;20063;-55
2022/01/11 03:23:44;;;;;;;37.10;15.18;;;;;;;-0.90;100.00;103089.00;5074027;28;20040;-57
2022/01/11 03:26:12;;;;;;;29.17;13.98;;;;;;;-0.78;100.00;103094.38;5069779;28;20051;-55
2022/01/11 03:28:40;;;;;;;31.42;15.32;;;;;;;-0.75;100.00;103103.91;5072131;28;20105;-56
2022/01/11 03:31:10;;;;;;;32.90;14.98;;;;;;;-0.77;100.00;103105.63;5072775;28;20109;-54
2022/01/11 03:33:38;;;;;;;36.83;16.42;;;;;;;-0.91;100.00;103103.63;5073408;28;20487;-56
2022/01/11 03:36:06;;;;;;;38.70;15.05;;;;;;;-0.88;100.00;103106.28;5073077;28;20041;-57
2022/01/11 03:38:36;;;;;;;32.60;14.85;;;;;;;-0.86;100.00;103106.28;5073370;28;20479;-55
2022/01/11 03:41:04;;;;;;;35.38;16.35;;;;;;;-0.87;100.00;103104.56;5072669;28;20165;-56
2022/01/11 03:43:32;;;;;;;32.15;15.25;;;;;;;-0.89;100.00;103095.91;5072110;28;20044;-56
2022/01/11 03:46:01;;;;;;;29.10;14.27;;;;;;;-0.82;100.00;103096.91;5071047;28;20051;-55
2022/01/11 03:48:30;;;;;;;28.92;14.43;;;;;;;-1.00;100.00;103098.28;5072187;28;20439;-54
2022/01/11 03:50:58;;;;;;;27.80;14.15;;;;;;;-1.01;100.00;103091.38;5072203;28;20119;-55
2022/01/11 03:53:32;;;;;;;35.85;15.45;;;;;;;-0.98;100.00;103085.41;5071814;28;20049;-55
2022/01/11 03:56:21;;;;;;;33.00;14.43;;;;;;;-0.98;100.00;103090.56;5073025;28;20119;-56
2022/01/11 03:58:51;;;;;;;32.90;15.40;;;;;;;-1.11;100.00;103089.47;5065821;28;20475;-56
2022/01/11 04:01:20;;;;;;;35.25;16.40;;;;;;;-1.07;100.00;103094.72;5074599;28;20052;-57
2022/01/11 04:03:50;;;;;;;30.70;15.25;;;;;;;-0.89;100.00;103091.59;5074862;28;20052;-57
2022/01/11 04:06:18;;;;;;;34.13;14.80;;;;;;;-1.00;100.00;103095.72;5074272;28;20079;-56
2022/01/11 04:08:47;;;;;;;32.42;15.20;;;;;;;-0.89;100.00;103106.25;5074247;28;20056;-55
2022/01/11 04:11:16;;;;;;;32.80;16.20;;;;;;;-0.94;100.00;103108.75;5074503;28;20099;-56
2022/01/11 04:13:44;;;;;;;37.30;16.42;;;;;;;-0.92;100.00;103109.63;5074630;28;20040;-54
2022/01/11 04:16:12;;;;;;;36.50;16.88;;;;;;;-0.95;100.00;103104.41;5074234;28;20124;-55
2022/01/11 04:18:40;;;;;;;41.83;16.38;;;;;;;-0.87;100.00;103109.75;5074497;28;20054;-54
2022/01/11 04:21:10;;;;;;;36.22;17.63;;;;;;;-0.88;100.00;103108.84;5074508;28;20040;-55
2022/01/11 04:23:38;;;;;;;34.97;16.10;;;;;;;-0.83;100.00;103103.78;5072790;28;20056;-56
2022/01/11 04:26:07;;;;;;;32.45;16.23;;;;;;;-0.87;100.00;103115.78;5073043;28;20139;-57
2022/01/11 04:28:35;;;;;;;34.22;18.00;;;;;;;-0.90;100.00;103120.88;5072888;28;20056;-57
2022/01/11 04:31:03;;;;;;;36.25;16.30;;;;;;;-0.93;100.00;103131.13;5073452;28;20052;-55
2022/01/11 04:33:32;;;;;;;35.55;16.48;;;;;;;-0.88;100.00;103123.50;5072874;28;20052;-56
2022/01/11 04:36:01;;;;;;;34.38;16.65;;;;;;;-0.90;100.00;103120.88;5073480;28;20044;-56
2022/01/11 04:38:32;;;;;;;38.20;17.15;;;;;;;-0.90;100.00;103117.41;5073101;28;20036;-56
2022/01/11 04:41:00;;;;;;;35.75;17.63;;;;;;;-0.97;100.00;103121.59;5073260;28;20491;-55
2022/01/11 04:43:28;;;;;;;35.72;16.23;;;;;;;-0.92;100.00;103122.56;5073440;28;20460;-55
2022/01/11 04:45:56;;;;;;;36.88;17.70;;;;;;;-0.83;100.00;103123.56;5073454;28;20414;-56
2022/01/11 04:48:24;;;;;;;35.55;16.73;;;;;;;-0.80;100.00;103126.25;5073285;28;20036;-56
2022/01/11 04:50:52;;;;;;;32.85;16.95;;;;;;;-0.81;100.00;103129.66;5072021;28;20057;-57
2022/01/11 04:53:20;;;;;;;36.78;17.48;;;;;;;-0.87;100.00;103120.94;5073053;28;20048;-56
2022/01/11 04:55:49;;;;;;;37.85;16.92;;;;;;;-0.96;100.00;103125.91;5073211;28;20127;-56
2022/01/11 04:58:18;;;;;;;34.35;17.30;;;;;;;-0.96;100.00;103118.16;5073327;28;20049;-56
2022/01/11 05:00:47;;;;;;;35.00;18.27;;;;;;;-0.95;100.00;103116.47;5072875;28;20139;-56
2022/01/11 05:03:15;;;;;;;34.83;17.48;;;;;;;-0.91;100.00;103115.69;5072889;28;20080;-55
2022/01/11 05:05:43;;;;;;;37.20;18.48;;;;;;;-0.82;100.00;103125.31;5073000;28;20083;-55
2022/01/11 05:08:11;;;;;;;35.65;16.98;;;;;;;-0.84;100.00;103130.47;5072927;28;20441;-56
2022/01/11 05:10:42;;;;;;;38.53;16.80;;;;;;;-0.93;100.00;103115.63;5072659;28;20056;-55
2022/01/11 05:13:13;;;;;;;36.58;16.52;;;;;;;-0.89;100.00;103116.59;5072700;28;20040;-57
2022/01/11 05:15:41;;;;;;;38.38;18.15;;;;;;;-0.88;100.00;103113.16;5072709;28;20047;-57
2022/01/11 05:18:10;;;;;;;38.58;18.50;;;;;;;-1.00;100.00;103118.97;5072466;28;20045;-57
2022/01/11 05:20:40;;;;;;;41.03;18.23;;;;;;;-0.99;100.00;103122.44;5072269;28;20055;-56
2022/01/11 05:23:09;;;;;;;39.97;17.75;;;;;;;-1.01;100.00;103122.38;5072120;28;20132;-50
2022/01/11 05:25:37;;;;;;;41.30;17.95;;;;;;;-0.89;100.00;103121.75;5071128;28;20044;-51
2022/01/11 05:28:06;;;;;;;42.13;18.92;;;;;;;-0.90;100.00;103120.88;5072315;28;20046;-53
2022/01/11 05:30:35;;;;;;;42.22;18.90;;;;;;;-0.95;100.00;103127.66;5072341;28;20040;-55
2022/01/11 05:33:03;;;;;;;39.25;17.83;;;;;;;-0.81;100.00;103129.66;5072262;28;20044;-50
2022/01/11 05:35:32;;;;;;;36.65;18.70;;;;;;;-0.86;100.00;103127.84;5072701;28;20049;-55
2022/01/11 05:38:00;;;;;;;36.13;16.40;;;;;;;-0.79;100.00;103127.94;5072414;28;20056;-49
2022/01/11 05:40:28;;;;;;;30.15;15.07;;;;;;;-0.80;100.00;103118.47;5071217;28;20044;-49
2022/01/11 05:42:56;;;;;;;35.00;15.02;;;;;;;-0.86;100.00;103124.38;5072552;28;20040;-50
2022/01/11 05:45:24;;;;;;;31.75;15.27;;;;;;;-0.75;100.00;103133.22;5070979;28;20068;-51
2022/01/11 05:47:54;;;;;;;28.13;14.05;;;;;;;-0.81;100.00;103127.94;5071811;28;20044;-49
2022/01/11 05:50:24;;;;;;;31.45;15.18;;;;;;;-0.84;100.00;103134.78;5072253;28;20070;-50
2022/01/11 05:52:52;;;;;;;29.25;14.07;;;;;;;-0.88;100.00;103137.28;5071792;28;20044;-51
2022/01/11 05:55:20;;;;;;;31.58;15.90;;;;;;;-1.14;100.00;103139.34;5072091;28;20044;-49
2022/01/11 05:57:49;;;;;;;30.70;14.35;;;;;;;-1.20;100.00;103142.69;5072303;28;20041;-49
2022/01/11 06:00:19;;;;;;;32.90;16.63;;;;;;;-1.23;100.00;103144.31;5071949;28;20049;-49
2022/01/11 06:02:52;;;;;;;29.30;14.68;;;;;;;-1.16;100.00;103141.00;5072143;28;20055;-48
2022/01/11 06:05:23;;;;;;;31.52;15.10;;;;;;;-1.13;100.00;103142.78;5071633;28;20049;-52
2022/01/11 06:07:52;;;;;;;31.20;15.27;;;;;;;-1.02;100.00;103146.50;5072174;28;20515;-49
2022/01/11 06:10:20;;;;;;;32.40;15.30;;;;;;;-0.96;100.00;103151.75;5072416;28;20094;-48
2022/01/11 06:12:48;;;;;;;38.45;17.15;;;;;;;-0.90;100.00;103151.00;5072345;28;20403;-51
2022/01/11 06:15:16;;;;;;;35.08;15.90;;;;;;;-0.94;100.00;103154.38;5072353;28;20110;-53
2022/01/11 06:17:44;;;;;;;35.53;18.15;;;;;;;-1.06;100.00;103155.00;5072243;28;20049;-50
2022/01/11 06:20:13;;;;;;;37.67;18.02;;;;;;;-1.12;100.00;103158.31;5070516;28;20136;-50
2022/01/11 06:22:43;;;;;;;34.13;16.50;;;;;;;-1.20;100.00;103163.34;5067050;28;20052;-53
2022/01/11 06:25:11;;;;;;;37.00;17.38;;;;;;;-1.20;100.00;103173.69;5071145;28;20051;-51
2022/01/11 06:27:40;;;;;;;39.38;18.65;;;;;;;-1.26;100.00;103168.38;5072167;28;20068;-49
2022/01/11 06:30:15;;;;;;;42.58;18.73;;;;;;;-1.17;100.00;103171.97;5071634;28;20045;-51
2022/01/11 06:32:44;;;;;;;43.42;19.42;;;;;;;-1.13;100.00;103174.69;5070674;28;20063;-52
2022/01/11 06:35:13;;;;;;;42.33;19.65;;;;;;;-1.14;100.00;103177.22;5070008;28;20053;-49
2022/01/11 06:37:43;;;;;;;38.55;18.60;;;;;;;-1.02;100.00;103180.94;5067895;28;20044;-53
2022/01/11 06:40:13;;;;;;;44.67;19.50;;;;;;;-1.10;100.00;103184.19;5071935;28;20399;-47
2022/01/11 06:42:41;;;;;;;39.60;19.25;;;;;;;-1.06;100.00;103183.44;5071905;28;20040;-52
2022/01/11 06:45:11;;;;;;;41.95;18.63;;;;;;;-1.00;100.00;103198.19;5071882;28;20044;-51
2022/01/11 06:47:40;;;;;;;40.83;18.92;;;;;;;-0.94;100.00;103203.47;5071824;28;20055;-48
2022/01/11 06:50:09;;;;;;;38.58;18.75;;;;;;;-0.91;100.00;103209.56;5071806;28;20049;-49
2022/01/11 06:52:38;;;;;;;37.88;17.75;;;;;;;-0.94;100.00;103206.94;5072069;28;20519;-51
2022/01/11 06:55:09;;;;;;;42.47;20.38;;;;;;;-0.98;100.00;103211.97;5069250;28;20109;-51
2022/01/11 06:57:37;;;;;;;39.47;18.35;;;;;;;-0.95;100.00;103209.50;5069455;28;20049;-49
2022/01/11 07:00:07;;;;;;;36.55;19.02;;;;;;;-0.94;100.00;103208.63;5073409;28;20048;-51
2022/01/11 07:02:35;;;;;;;37.25;17.85;;;;;;;-0.97;100.00;103211.16;5075862;28;20391;-51
2022/01/11 07:05:04;;;;;;;39.25;18.80;;;;;;;-0.93;100.00;103208.66;5075692;28;20048;-48
2022/01/11 07:07:32;;;;;;;40.65;17.95;;;;;;;-0.89;100.00;103207.00;5075849;28;20040;-55
2022/01/11 07:10:01;;;;;;;41.45;18.38;;;;;;;-1.07;100.00;103204.94;5075682;28;20056;-55
2022/01/11 07:12:30;;;;;;;36.78;17.23;;;;;;;-1.08;100.00;103206.66;5075568;28;20095;-53
2022/01/11 07:14:58;;;;;;;36.28;17.20;;;;;;;-1.00;100.00;103211.09;5075564;28;20075;-55
2022/01/11 07:17:26;;;;;;;38.67;17.92;;;;;;;-0.98;100.00;103217.16;5075592;28;20041;-55
2022/01/11 07:19:54;;;;;;;35.17;17.80;;;;;;;-0.98;100.00;103223.22;5075605;28;20391;-54
2022/01/11 07:22:22;;;;;;;38.67;17.25;;;;;;;-0.98;100.00;103223.22;5075321;28;20048;-56
2022/01/11 07:24:50;;;;;;;34.15;17.63;;;;;;;-0.93;100.00;103225.88;5075431;28;20487;-55
2022/01/11 07:27:18;;;;;;;34.30;16.52;;;;;;;-1.01;100.00;103241.22;5075451;28;20057;-54
2022/01/11 07:29:48;;;;;;;32.40;15.00;;;;;;;-1.04;100.00;103234.28;5075545;28;20044;-55
2022/01/11 07:32:16;;;;;;;32.22;16.23;;;;;;;-1.05;100.00;103234.22;5075357;28;20044;-53
2022/01/11 07:34:45;;;;;;;31.92;15.20;;;;;;;-0.95;100.00;103235.31;5075349;28;20415;-56
2022/01/11 07:37:13;;;;;;;27.60;14.80;;;;;;;-1.10;100.00;103231.56;5075233;28;20048;-54
2022/01/11 07:39:41;;;;;;;33.53;14.68;;;;;;;-1.08;100.00;103234.16;5074576;28;20044;-54
2022/01/11 07:42:09;;;;;;;30.52;14.45;;;;;;;-1.14;100.00;103231.47;5074699;28;20475;-56
2022/01/11 07:44:37;;;;;;;29.42;15.35;;;;;;;-1.04;100.00;103229.13;5075165;28;20040;-55
2022/01/11 07:47:07;;;;;;;29.33;15.85;;;;;;;-1.13;100.00;103236.66;5075048;28;20071;-55
2022/01/11 07:49:37;;;;;;;32.00;13.35;;;;;;;-1.04;100.00;103243.72;5075378;28;20053;-55
2022/01/11 07:52:05;;;;;;;31.58;15.30;;;;;;;-1.01;100.00;103246.38;5074988;28;20162;-55
2022/01/11 07:54:34;;;;;;;30.63;14.13;;;;;;;-0.94;100.00;103250.84;5074824;28;20395;-56
2022/01/11 07:57:02;;;;;;;29.20;13.50;;;;;;;-0.92;100.00;103254.31;5074953;28;20052;-54
2022/01/11 07:59:30;;;;;;;26.77;13.40;;;;;;;-0.89;100.00;103251.81;5074948;28;20049;-55
2022/01/11 08:02:19;;;;;;;24.17;12.48;;;;;;;-0.90;100.00;103249.19;5074843;28;20084;-55
2022/01/11 08:04:47;;;;;;;27.40;13.18;;;;;;;-0.84;100.00;103251.06;5074910;28;20570;-55
2022/01/11 08:07:16;;;;;;;23.90;12.75;;;;;;;-1.05;100.00;103257.47;5074738;28;20056;-54
2022/01/11 08:09:44;;;;;;;26.13;13.73;;;;;;;-0.95;100.00;103250.81;5073564;28;20052;-55
2022/01/11 08:12:12;;;;;;;26.38;14.00;;;;;;;-0.71;100.00;103245.28;5074496;28;20067;-56
2022/01/11 08:14:40;;;;;;;23.80;12.27;;;;;;;-0.69;100.00;103252.22;5074254;28;20495;-54
2022/01/11 08:17:08;;;;;;;24.00;12.27;;;;;;;-0.57;100.00;103254.19;5074536;28;20045;-55
2022/01/11 08:19:38;;;;;;;24.02;12.80;;;;;;;-0.39;100.00;103258.84;5074359;28;20106;-55
2022/01/11 08:22:06;;;;;;;25.77;13.05;;;;;;;-0.23;100.00;103252.25;5074360;28;20110;-56
2022/01/11 08:24:34;;;;;;;23.38;12.77;;;;;;;-0.22;100.00;103250.53;5074478;28;20049;-55
2022/01/11 08:27:02;;;;;;;24.42;12.45;;;;;;;-0.10;100.00;103255.06;5074224;28;20114;-53
2022/01/11 08:29:31;;;;;;;23.40;11.68;;;;;;;-0.06;100.00;103252.53;5074141;28;20383;-55
2022/01/11 08:31:59;;;;;;;22.90;11.00;;;;;;;-0.12;100.00;103251.56;5073869;28;20444;-55
2022/01/11 08:34:27;;;;;;;19.45;11.60;;;;;;;-0.06;100.00;103251.69;5073662;28;20053;-56
2022/01/11 08:36:58;;;;;;;23.20;11.10;;;;;;;0.03;100.00;103246.69;5074180;28;20052;-56
2022/01/11 08:39:27;;;;;;;21.63;12.20;;;;;;;0.08;100.00;103258.00;5074117;28;20044;-56
2022/01/11 08:41:55;;;;;;;20.67;10.68;;;;;;;0.14;100.00;103260.66;5074128;28;20537;-56
2022/01/11 08:44:24;;;;;;;20.20;11.52;;;;;;;0.09;100.00;103264.03;5074036;28;20357;-55
2022/01/11 08:46:52;;;;;;;22.83;12.02;;;;;;;0.22;100.00;103257.31;5074139;28;20114;-56
2022/01/11 08:49:20;;;;;;;23.90;11.60;;;;;;;0.38;100.00;103254.13;5073851;28;20048;-55
2022/01/11 08:51:48;;;;;;;23.40;11.35;;;;;;;0.38;100.00;103254.13;5074022;28;20052;-56
2022/01/11 08:54:23;;;;;;;25.45;12.40;;;;;;;0.41;100.00;103245.56;5073710;28;20135;-56
2022/01/11 08:56:52;;;;;;;24.45;11.48;;;;;;;0.21;100.00;103246.13;5073499;28;20491;-56
2022/01/11 08:59:21;;;;;;;22.55;12.43;;;;;;;0.24;100.00;103247.88;5073051;28;20541;-56
2022/01/11 09:01:49;;;;;;;23.38;11.82;;;;;;;0.20;100.00;103248.69;5073686;28;20102;-56
2022/01/11 09:04:18;;;;;;;23.70;11.48;;;;;;;0.14;100.00;103252.91;5073178;28;20041;-56
2022/01/11 09:06:46;;;;;;;22.60;12.35;;;;;;;0.08;100.00;103260.56;5072145;28;20522;-57
2022/01/11 09:09:19;;;;;;;23.23;12.90;;;;;;;0.19;100.00;103262.47;5073655;28;20062;-57
2022/01/11 09:11:47;;;;;;;24.27;12.63;;;;;;;0.28;100.00;103278.16;5073411;28;20048;-57
2022/01/11 09:14:15;;;;;;;26.27;12.23;;;;;;;0.41;100.00;103279.22;5073100;28;20094;-56
2022/01/11 09:16:43;;;;;;;23.35;12.07;;;;;;;0.56;100.00;103276.00;5072062;28;20101;-56
2022/01/11 09:19:13;;;;;;;25.38;12.32;;;;;;;0.64;100.00;103277.88;5073604;28;20124;-56
2022/01/11 09:21:41;;;;;;;25.50;12.63;;;;;;;0.62;100.00;103281.28;5073447;28;20055;-56
2022/01/11 09:24:17;;;;;;;23.08;12.15;;;;;;;0.74;100.00;103281.47;5073064;28;20049;-56
2022/01/11 09:26:48;;;;;;;26.77;12.30;;;;;;;0.94;100.00;103284.38;5073113;28;20051;-56
2022/01/11 09:29:17;;;;;;;25.55;12.05;;;;;;;1.03;100.00;103281.00;5072845;28;20048;-56
2022/01/11 09:31:45;;;;;;;24.73;11.90;;;;;;;0.89;100.00;103286.00;5072894;28;20090;-55
2022/01/11 09:34:13;;;;;;;22.10;11.23;;;;;;;1.23;100.00;103283.00;5073098;28;20049;-56
2022/01/11 09:36:41;;;;;;;25.15;12.05;;;;;;;1.40;100.00;103291.00;5072862;28;20032;-55
2022/01/11 09:39:09;;;;;;;28.17;13.35;;;;;;;1.60;100.00;103293.84;5072627;28;20052;-56
2022/01/11 09:41:38;;;;;;;24.10;11.70;;;;;;;1.93;100.00;103295.06;5072800;28;20052;-56
2022/01/11 09:44:08;;;;;;;26.83;12.25;;;;;;;2.05;100.00;103295.19;5072679;28;20487;-56
2022/01/11 09:46:36;;;;;;;23.35;11.45;;;;;;;1.97;100.00;103297.69;5072744;28;20391;-56
2022/01/11 09:49:06;;;;;;;23.40;11.10;;;;;;;2.08;100.00;103291.75;5072786;28;20120;-55
2022/01/11 09:51:36;;;;;;;24.45;11.23;;;;;;;2.07;100.00;103295.19;5072645;28;20123;-55
2022/01/11 09:54:05;;;;;;;27.38;11.48;;;;;;;1.95;100.00;103293.31;5072868;28;20048;-55
2022/01/11 09:56:35;;;;;;;23.65;11.15;;;;;;;2.12;100.00;103298.72;5072630;28;20117;-56
2022/01/11 09:59:04;;;;;;;26.90;12.57;;;;;;;2.19;100.00;103309.13;5072431;28;20044;-56
2022/01/11 10:01:36;;;;;;;25.45;11.05;;;;;;;2.18;100.00;103299.63;5072302;28;20037;-56
2022/01/11 10:04:07;;;;;;;28.02;12.50;;;;;;;2.19;100.00;103306.53;5072489;28;20125;-56
2022/01/11 10:06:39;;;;;;;23.85;11.02;;;;;;;2.16;100.00;103300.47;5072546;28;20119;-56
2022/01/11 10:09:16;;;;;;;21.17;10.95;;;;;;;2.19;100.00;103295.31;5072434;28;20074;-57
2022/01/11 10:11:47;;;;;;;25.52;11.32;;;;;;;2.27;100.00;103290.19;5072584;28;20572;-56
2022/01/11 10:14:22;;;;;;;27.02;11.98;;;;;;;2.05;100.00;103292.59;5071720;28;20052;-56
2022/01/11 10:17:05;;;;;;;23.88;10.85;;;;;;;1.97;100.00;103289.91;5072148;28;20487;-56
2022/01/11 10:19:34;;;;;;;25.23;12.20;;;;;;;2.10;100.00;103283.13;5072272;28;20048;-55
2022/01/11 10:22:04;;;;;;;29.52;12.85;;;;;;;1.98;100.00;103291.66;5072216;28;20083;-56
2022/01/11 10:24:35;;;;;;;28.35;11.88;;;;;;;2.12;100.00;103289.19;5072173;28;20059;-52
2022/01/11 10:27:05;;;;;;;26.52;12.05;;;;;;;1.81;100.00;103294.09;5072106;28;20052;-53
2022/01/11 10:29:37;;;;;;;24.13;11.30;;;;;;;2.03;100.00;103291.69;5072270;28;20503;-54
2022/01/11 10:32:22;;;;;;;24.05;10.77;;;;;;;2.09;100.00;103283.97;5071709;28;20051;-54
2022/01/11 10:34:52;;;;;;;25.85;12.30;;;;;;;2.25;100.00;103276.31;5072228;28;20044;-52
2022/01/11 10:37:35;;;;;;;24.45;11.60;;;;;;;2.03;100.00;103276.09;5072289;28;20045;-52
2022/01/11 10:40:08;;;;;;;27.13;13.00;;;;;;;1.80;100.00;103274.16;5071263;28;20036;-54
2022/01/11 10:42:41;;;;;;;28.30;12.05;;;;;;;1.83;100.00;103274.19;5068412;28;20143;-52
2022/01/11 10:45:10;;;;;;;;;;;;;;;1.87;100.00;103277.69;5070057;28;20056;-53
2022/01/11 10:47:42;;;;;;;19.80;10.75;;;;;;;2.00;100.00;103282.16;5072260;28;19948;-54
2022/01/11 10:50:13;;;;;;;26.63;11.40;;;;;;;2.06;100.00;103283.94;5071804;28;20048;-52
2022/01/11 10:52:43;;;;;;;25.58;11.13;;;;;;;1.95;100.00;103283.84;5072194;28;20052;-52
2022/01/11 10:55:16;;;;;;;27.00;12.43;;;;;;;1.83;100.00;103281.97;5071877;28;20056;-52
2022/01/11 10:57:50;;;;;;;27.40;12.27;;;;;;;1.83;100.00;103284.56;5071844;28;20048;-52
2022/01/11 11:00:24;;;;;;;26.83;11.18;;;;;;;1.93;100.00;103279.47;5071392;28;20534;-53
2022/01/11 11:02:57;;;;;;;26.40;11.20;;;;;;;1.96;100.00;103285.56;5072189;28;20105;-53
2022/01/11 11:05:30;;;;;;;24.30;11.40;;;;;;;1.97;100.00;103286.44;5071745;28;20049;-51
2022/01/11 11:08:08;;;;;;;25.70;12.00;;;;;;;2.06;100.00;103281.34;5071923;28;20044;-53
2022/01/11 11:10:46;;;;;;;23.63;10.45;;;;;;;2.15;100.00;103281.41;5072049;28;20041;-53
2022/01/11 11:13:28;;;;;;;22.52;11.50;;;;;;;2.15;100.00;103278.81;5068319;28;20051;-54
2022/01/11 11:15:58;;;;;;;27.90;11.32;;;;;;;2.16;100.00;103279.69;5066742;28;20058;-52